createdAt,value
2023-03-20T00:02:37.838Z,20.10
2023-03-20T00:05:40.300Z,19.30
2023-03-20T00:08:45.108Z,18.70
2023-03-20T00:11:49.212Z,18.90
2023-03-20T00:14:51.088Z,17.70
2023-03-20T00:17:53.527Z,18.10
2023-03-20T00:23:57.866Z,18.30
2023-03-20T00:26:59.713Z,18.30
2023-03-20T00:30:02.128Z,18.60
2023-03-20T00:33:05.451Z,18.50
2023-03-20T00:36:09.122Z,18.90
2023-03-20T00:42:21.229Z,18.10
2023-03-20T00:45:23.737Z,19.30
2023-03-20T00:48:26.063Z,18.90
2023-03-20T00:51:28.693Z,17.70
2023-03-20T00:54:31.650Z,18.00
2023-03-20T00:58:00.118Z,17.50
2023-03-20T01:01:02.074Z,17.60
2023-03-20T01:04:12.375Z,18.50
2023-03-20T01:07:15.814Z,17.60
2023-03-20T01:10:18.260Z,19.30
2023-03-20T01:13:24.001Z,18.40
2023-03-20T01:16:26.634Z,18.60
2023-03-20T01:19:28.709Z,19.00
2023-03-20T01:22:30.844Z,18.50
2023-03-20T01:25:32.775Z,19.50
2023-03-20T01:28:35.228Z,18.60
2023-03-20T01:31:36.973Z,19.70
2023-03-20T01:34:39.122Z,19.00
2023-03-20T01:37:41.655Z,18.80
2023-03-20T01:41:03.763Z,19.60
2023-03-20T01:44:22.961Z,19.90
2023-03-20T01:47:28.573Z,19.50
2023-03-20T01:50:34.077Z,18.30
2023-03-20T01:53:46.603Z,19.00
2023-03-20T01:57:03.890Z,18.40
2023-03-20T02:00:10.101Z,18.90
2023-03-20T02:03:18.932Z,17.10
2023-03-20T02:07:00.052Z,17.10
2023-03-20T02:10:28.479Z,17.10
2023-03-20T02:13:37.712Z,17.60
2023-03-20T02:20:49.878Z,16.70
2023-03-20T02:24:19.238Z,16.40
2023-03-20T02:27:40.232Z,16.30
2023-03-20T02:31:03.311Z,16.40
2023-03-20T02:34:18.739Z,15.90
2023-03-20T02:37:50.968Z,16.90
2023-03-20T02:41:21.133Z,16.40
2023-03-20T02:44:35.944Z,16.50
2023-03-20T02:47:52.868Z,16.80
2023-03-20T02:51:06.226Z,17.10
2023-03-20T02:54:17.525Z,16.40
2023-03-20T02:57:28.845Z,17.80
2023-03-20T03:00:37.609Z,16.90
2023-03-20T03:03:49.463Z,16.60
2023-03-20T03:06:55.224Z,17.10
2023-03-20T03:10:07.052Z,16.60
2023-03-20T03:13:14.949Z,15.60
2023-03-20T03:16:28.824Z,16.00
2023-03-20T03:19:33.493Z,15.90
2023-03-20T03:22:35.734Z,14.50
2023-03-20T03:25:40.910Z,15.00
2023-03-20T03:28:50.508Z,15.10
2023-03-20T03:31:52.535Z,15.10
2023-03-20T03:34:55.387Z,15.70
2023-03-20T03:38:00.951Z,15.70
2023-03-20T03:41:14.448Z,15.10
2023-03-20T03:44:25.948Z,14.40
2023-03-20T03:47:44.713Z,12.90
2023-03-20T03:50:56.932Z,13.50
2023-03-20T03:54:08.754Z,12.70
2023-03-20T03:57:13.294Z,12.60
2023-03-20T04:00:19.736Z,13.40
2023-03-20T04:03:28.098Z,13.20
2023-03-20T04:06:30.076Z,13.50
2023-03-20T04:09:33.025Z,12.90
2023-03-20T04:12:39.030Z,13.20
2023-03-20T04:15:44.752Z,12.50
2023-03-20T04:21:49.376Z,13.00
2023-03-20T04:24:52.105Z,13.20
2023-03-20T04:27:54.977Z,14.30
2023-03-20T04:31:08.156Z,14.40
2023-03-20T04:34:24.277Z,16.80
2023-03-20T04:37:37.682Z,16.40
2023-03-20T04:40:43.622Z,15.60
2023-03-20T04:43:45.366Z,14.80
2023-03-20T04:46:47.164Z,15.40
2023-03-20T04:49:52.078Z,15.70
2023-03-20T04:52:54.024Z,15.60
2023-03-20T04:55:55.948Z,15.50
2023-03-20T04:58:57.937Z,15.70
2023-03-20T05:01:59.953Z,15.80
2023-03-20T05:05:02.793Z,15.30
2023-03-20T05:08:05.990Z,14.60
2023-03-20T05:11:11.182Z,14.70
2023-03-20T05:14:31.240Z,15.50
2023-03-20T05:18:09.160Z,15.40
2023-03-20T05:21:25.197Z,15.30
2023-03-20T05:24:44.763Z,15.10
2023-03-20T05:28:25.058Z,14.80
2023-03-20T05:31:42.840Z,15.10
2023-03-20T05:35:02.136Z,15.00
2023-03-20T05:38:26.941Z,14.60
2023-03-20T05:41:45.756Z,14.60
2023-03-20T05:45:06.993Z,14.90
2023-03-20T05:48:34.794Z,15.40
2023-03-20T05:51:51.705Z,16.50
2023-03-20T05:55:11.522Z,15.30
2023-03-20T05:58:34.751Z,15.70
2023-03-20T06:01:43.634Z,16.70
2023-03-20T06:08:16.213Z,15.70
2023-03-20T06:11:18.067Z,17.20
2023-03-20T06:14:20.126Z,17.90
2023-03-20T06:17:27.156Z,17.60
2023-03-20T06:20:33.890Z,16.20
2023-03-20T06:23:37.245Z,16.60
2023-03-20T06:26:39.626Z,17.80
2023-03-20T06:29:44.656Z,18.40
2023-03-20T06:32:50.516Z,19.70
2023-03-20T06:35:53.175Z,20.60
2023-03-20T06:38:56.319Z,19.00
2023-03-20T06:41:58.798Z,20.30
2023-03-20T06:48:24.341Z,18.80
2023-03-20T06:51:26.567Z,20.30
2023-03-20T06:57:30.693Z,17.90
2023-03-20T07:00:51.453Z,18.70
2023-03-20T07:03:58.128Z,19.50
2023-03-20T07:07:24.712Z,20.40
2023-03-20T07:10:43.799Z,20.90
2023-03-20T07:13:49.747Z,21.40
2023-03-20T07:17:14.924Z,18.70
2023-03-20T07:20:19.333Z,21.70
2023-03-20T07:23:21.337Z,19.70
2023-03-20T07:26:23.434Z,20.00
2023-03-20T07:29:25.404Z,21.40
2023-03-20T07:35:59.017Z,21.70
2023-03-20T07:39:46.988Z,21.50
2023-03-20T07:43:24.445Z,25.30
2023-03-20T07:47:10.045Z,23.30
2023-03-20T07:55:35.843Z,21.10
2023-03-20T07:59:01.668Z,21.40
2023-03-20T08:02:05.365Z,21.20
2023-03-20T08:05:09.621Z,21.30
2023-03-20T08:08:16.622Z,22.90
2023-03-20T08:32:07.357Z,24.40
2023-03-20T08:35:29.747Z,25.50
2023-03-20T08:48:17.198Z,28.40
2023-03-20T09:16:14.835Z,31.80
2023-03-20T09:24:50.941Z,29.40
2023-03-20T09:28:12.063Z,28.10
2023-03-20T09:35:33.628Z,25.40
2023-03-20T09:38:36.840Z,28.90
2023-03-20T09:41:53.144Z,27.60
2023-03-20T09:45:36.619Z,26.70
2023-03-20T09:48:48.779Z,25.60
2023-03-20T09:51:56.537Z,26.90
2023-03-20T09:55:08.061Z,25.90
2023-03-20T09:58:25.782Z,26.50
2023-03-20T10:01:47.278Z,25.10
2023-03-20T10:04:54.891Z,27.20
2023-03-20T10:08:03.371Z,26.00
2023-03-20T10:11:40.500Z,25.60
2023-03-20T10:15:02.130Z,25.30
2023-03-20T10:18:17.880Z,27.20
2023-03-20T10:21:32.743Z,28.10
2023-03-20T10:24:35.912Z,27.80
2023-03-20T10:27:44.227Z,29.00
2023-03-20T10:31:18.141Z,29.70
2023-03-20T10:34:45.575Z,31.60
2023-03-20T10:38:02.515Z,30.60
2023-03-20T10:41:13.951Z,28.70
2023-03-20T10:44:27.800Z,26.30
2023-03-20T10:47:35.643Z,25.20
2023-03-20T10:50:47.521Z,25.90
2023-03-20T10:54:02.363Z,24.90
2023-03-20T10:57:06.945Z,25.80
2023-03-20T11:00:20.088Z,26.80
2023-03-20T11:03:30.621Z,25.60
2023-03-20T11:06:42.323Z,25.70
2023-03-20T11:09:45.748Z,23.10
2023-03-20T11:13:25.227Z,22.40
2023-03-20T11:16:34.547Z,23.60
2023-03-20T11:19:50.726Z,23.80
2023-03-20T11:23:04.816Z,23.20
2023-03-20T11:26:18.250Z,23.30
2023-03-20T11:29:46.403Z,23.90
2023-03-20T11:32:56.745Z,23.90
2023-03-20T11:36:29.645Z,23.30
2023-03-20T11:42:37.420Z,22.20
2023-03-20T11:45:45.485Z,24.60
2023-03-20T11:49:20.929Z,24.60
2023-03-20T11:52:32.777Z,28.00
2023-03-20T11:55:36.234Z,28.10
2023-03-20T11:59:04.968Z,26.40
2023-03-20T12:02:22.667Z,24.90
2023-03-20T12:05:39.977Z,25.10
2023-03-20T12:08:47.683Z,22.80
2023-03-20T12:11:58.959Z,15.60
2023-03-20T12:15:21.745Z,15.60
2023-03-20T12:18:31.884Z,13.00
2023-03-20T12:22:04.605Z,13.60
2023-03-20T12:28:47.052Z,11.40
2023-03-20T12:32:18.311Z,13.30
2023-03-20T12:35:29.902Z,12.60
2023-03-20T12:38:37.113Z,13.00
2023-03-20T12:41:59.006Z,12.90
2023-03-20T12:45:35.648Z,13.50
2023-03-20T12:49:08.647Z,12.10
2023-03-20T12:52:26.314Z,11.80
2023-03-20T12:55:56.320Z,11.70
2023-03-20T12:59:12.504Z,12.50
2023-03-20T13:02:43.552Z,11.50
2023-03-20T13:05:58.338Z,11.30
2023-03-20T13:09:18.485Z,11.30
2023-03-20T13:12:37.376Z,12.10
2023-03-20T13:16:22.382Z,11.80
2023-03-20T13:19:35.120Z,11.40
2023-03-20T13:22:54.935Z,12.20
2023-03-20T13:26:17.536Z,11.90
2023-03-20T13:29:49.816Z,13.60
2023-03-20T13:33:24.362Z,12.90
2023-03-20T13:36:56.483Z,13.50
2023-03-20T13:44:01.508Z,11.40
2023-03-20T13:47:19.697Z,13.80
2023-03-20T13:50:50.580Z,15.10
2023-03-20T13:54:12.092Z,11.80
2023-03-20T13:57:36.670Z,13.80
2023-03-20T14:01:00.253Z,14.20
2023-03-20T14:07:38.900Z,13.00
2023-03-20T14:10:43.956Z,13.50
2023-03-20T14:13:56.630Z,13.10
2023-03-20T14:17:09.721Z,12.40
2023-03-20T14:20:27.713Z,14.00
2023-03-20T14:23:56.471Z,15.60
2023-03-20T14:27:01.553Z,15.30
2023-03-20T14:30:51.211Z,14.30
2023-03-20T14:34:08.987Z,14.90
2023-03-20T14:41:30.453Z,16.30
2023-03-20T14:44:48.086Z,15.30
2023-03-20T14:48:27.737Z,16.00
2023-03-20T14:51:44.283Z,16.20
2023-03-20T14:54:54.303Z,16.40
2023-03-20T14:58:02.320Z,15.80
2023-03-20T15:01:08.783Z,16.60
2023-03-20T15:04:38.642Z,18.00
2023-03-20T15:07:42.574Z,17.80
2023-03-20T15:10:57.340Z,16.60
2023-03-20T15:14:04.412Z,16.90
2023-03-20T15:17:17.898Z,18.50
2023-03-20T15:20:26.419Z,17.50
2023-03-20T15:23:29.656Z,16.80
2023-03-20T15:26:35.327Z,16.80
2023-03-20T15:29:43.225Z,17.30
2023-03-20T15:32:52.951Z,17.50
2023-03-20T15:35:56.747Z,23.90
2023-03-20T15:39:27.499Z,22.90
2023-03-20T15:42:30.770Z,21.30
2023-03-20T15:45:38.178Z,20.20
2023-03-20T15:48:46.970Z,20.70
2023-03-20T15:51:52.310Z,20.40
2023-03-20T15:54:58.504Z,20.70
2023-03-20T15:58:02.880Z,21.20
2023-03-20T16:01:08.132Z,23.00
2023-03-20T16:04:18.851Z,23.60
2023-03-20T16:07:27.642Z,21.70
2023-03-20T16:10:36.567Z,23.20
2023-03-20T16:13:44.011Z,24.00
2023-03-20T16:16:49.474Z,24.80
2023-03-20T16:19:53.138Z,24.60
2023-03-20T16:23:02.509Z,24.10
2023-03-20T16:26:08.603Z,23.20
2023-03-20T16:29:15.085Z,23.50
2023-03-20T16:32:26.975Z,25.50
2023-03-20T16:35:37.300Z,32.80
2023-03-20T16:38:40.815Z,25.90
2023-03-20T16:41:45.663Z,27.20
2023-03-20T16:44:55.025Z,28.80
2023-03-20T16:48:10.124Z,30.10
2023-03-20T16:51:32.326Z,28.20
2023-03-20T16:54:37.555Z,30.90
2023-03-20T16:57:42.213Z,26.70
2023-03-20T17:00:57.272Z,35.80
2023-03-20T17:04:22.302Z,26.60
2023-03-20T17:07:28.209Z,27.60
2023-03-20T17:10:31.394Z,27.10
2023-03-20T17:13:34.643Z,28.50
2023-03-20T17:16:40.221Z,26.80
2023-03-20T17:19:43.712Z,32.10
2023-03-20T17:22:47.366Z,33.40
2023-03-20T17:25:51.097Z,37.10
2023-03-20T17:28:54.887Z,37.40
2023-03-20T17:31:58.108Z,43.40
2023-03-20T17:35:01.345Z,37.60
2023-03-20T17:38:04.471Z,43.70
2023-03-20T17:41:14.795Z,43.10
2023-03-20T17:44:17.971Z,50.50
2023-03-20T17:47:23.429Z,55.50
2023-03-20T17:50:27.557Z,64.90
2023-03-20T17:53:31.458Z,54.20
2023-03-20T17:56:34.712Z,37.70
2023-03-20T17:59:37.836Z,31.70
2023-03-20T18:02:41.012Z,26.00
2023-03-20T18:05:46.086Z,24.40
2023-03-20T18:08:49.166Z,23.90
2023-03-20T18:11:52.166Z,23.40
2023-03-20T18:14:55.474Z,24.00
2023-03-20T18:17:58.898Z,23.00
2023-03-20T18:21:03.015Z,22.70
2023-03-20T18:24:06.449Z,21.40
2023-03-20T18:27:11.000Z,22.40
2023-03-20T18:30:20.256Z,21.50
2023-03-20T18:33:27.586Z,22.10
2023-03-20T18:36:30.720Z,21.60
2023-03-20T18:39:33.789Z,21.90
2023-03-20T18:42:36.946Z,22.00
2023-03-20T18:45:40.103Z,21.20
2023-03-20T18:48:43.730Z,22.00
2023-03-20T18:51:46.979Z,19.70
2023-03-20T18:54:51.975Z,17.20
2023-03-20T18:57:56.569Z,15.30
2023-03-20T19:01:00.457Z,16.60
2023-03-20T19:04:03.734Z,18.70
2023-03-20T19:07:07.833Z,25.30
2023-03-20T19:10:24.801Z,28.90
2023-03-20T19:13:27.917Z,35.40
2023-03-20T19:16:35.154Z,31.80
2023-03-20T19:19:38.336Z,29.50
2023-03-20T19:22:41.723Z,38.00
2023-03-20T19:25:47.112Z,36.90
2023-03-20T19:28:50.947Z,34.70
2023-03-20T19:31:54.182Z,31.20
2023-03-20T19:38:21.673Z,30.50
2023-03-20T19:41:25.506Z,31.00
2023-03-20T19:44:28.640Z,24.90
2023-03-20T19:47:31.903Z,20.90
2023-03-20T19:50:41.364Z,20.90
2023-03-20T19:53:46.330Z,19.90
2023-03-20T19:56:49.521Z,18.90
2023-03-20T19:59:52.968Z,18.20
2023-03-20T20:02:56.520Z,17.40
2023-03-20T20:06:03.777Z,18.00
2023-03-20T20:09:06.957Z,17.20
2023-03-20T20:12:10.202Z,17.40
2023-03-20T20:15:14.210Z,15.80
2023-03-20T20:18:18.787Z,16.30
2023-03-20T20:22:13.304Z,17.40
2023-03-20T20:24:45.091Z,17.80
2023-03-20T20:27:48.792Z,16.80
2023-03-20T20:30:55.784Z,18.50
2023-03-20T20:34:25.231Z,17.90
2023-03-20T20:38:21.212Z,17.70
2023-03-20T20:40:45.293Z,17.60
2023-03-20T20:44:14.658Z,18.20
2023-03-20T20:47:11.994Z,18.70
2023-03-20T20:50:18.829Z,17.60
2023-03-20T20:53:21.944Z,16.60
2023-03-20T20:56:25.042Z,16.60
2023-03-20T20:59:28.455Z,16.50
2023-03-20T21:02:32.884Z,15.50
2023-03-20T21:05:37.849Z,15.90
2023-03-20T21:08:43.906Z,16.70
2023-03-20T21:11:49.794Z,17.10
2023-03-20T21:14:53.732Z,17.30
2023-03-20T21:18:01.447Z,17.60
2023-03-20T21:21:11.047Z,17.70
2023-03-20T21:24:31.171Z,17.00
2023-03-20T21:27:36.720Z,17.90
2023-03-20T21:31:00.021Z,18.50
2023-03-20T21:34:06.161Z,18.60
2023-03-20T21:38:15.803Z,18.10
2023-03-20T21:40:32.912Z,17.80
2023-03-20T21:43:36.292Z,17.70
2023-03-20T21:47:09.694Z,17.50
2023-03-20T22:01:10.950Z,18.00
2023-03-20T22:04:37.647Z,16.80
2023-03-20T22:07:52.209Z,19.00
2023-03-20T22:17:56.121Z,21.50
2023-03-20T22:34:53.757Z,19.60
2023-03-20T22:44:58.496Z,19.40
2023-03-20T22:47:42.312Z,20.10
2023-03-20T22:50:50.943Z,18.80
2023-03-20T22:53:54.070Z,19.10
2023-03-20T22:56:57.185Z,19.40
2023-03-20T23:00:00.325Z,19.70
2023-03-20T23:03:37.762Z,20.20
2023-03-20T23:06:28.627Z,19.30
2023-03-20T23:09:31.745Z,20.70
2023-03-20T23:12:34.780Z,20.00
2023-03-20T23:15:37.971Z,20.60
2023-03-20T23:18:41.296Z,19.50
2023-03-20T23:21:44.376Z,19.40
2023-03-20T23:24:47.417Z,19.80
2023-03-20T23:27:50.852Z,20.40
2023-03-20T23:31:07.615Z,21.30
2023-03-20T23:34:13.537Z,20.40
2023-03-20T23:37:16.661Z,20.90
2023-03-20T23:40:19.897Z,20.40
2023-03-20T23:43:23.063Z,20.30
2023-03-20T23:46:26.222Z,19.90
2023-03-20T23:49:29.470Z,20.20
2023-03-20T23:52:35.155Z,21.40
2023-03-20T23:55:40.397Z,23.70
2023-03-20T23:58:54.843Z,25.10
